createdAt,value
2018-09-02T00:01:03.337Z,102513.86
2018-09-02T00:03:31.769Z,102513.80
2018-09-02T00:06:00.598Z,102519.06
2018-09-02T00:08:29.033Z,102516.36
2018-09-02T00:10:57.480Z,102512.76
2018-09-02T00:13:26.013Z,102514.97
2018-09-02T00:15:54.446Z,102510.47
2018-09-02T00:18:22.889Z,102513.10
2018-09-02T00:20:52.474Z,102513.38
2018-09-02T00:23:21.873Z,102511.92
2018-09-02T00:25:50.399Z,102521.41
2018-09-02T00:28:19.714Z,102521.83
2018-09-02T00:30:48.158Z,102530.14
2018-09-02T00:33:16.751Z,102534.63
2018-09-02T00:35:45.433Z,102531.51
2018-09-02T00:38:13.862Z,102531.22
2018-09-02T00:40:42.309Z,102527.69
2018-09-02T00:43:11.151Z,102530.31
2018-09-02T00:45:39.589Z,102529.41
2018-09-02T00:48:08.040Z,102533.78
2018-09-02T00:50:36.508Z,102524.98
2018-09-02T00:53:05.224Z,102532.39
2018-09-02T00:55:33.834Z,102535.02
2018-09-02T00:58:02.479Z,102541.59
2018-09-02T01:00:30.917Z,102538.55
2018-09-02T01:02:59.350Z,102538.97
2018-09-02T01:05:28.440Z,102541.38
2018-09-02T01:07:57.565Z,102543.94
2018-09-02T01:10:26.198Z,102549.88
2018-09-02T01:12:54.754Z,102549.73
2018-09-02T01:15:23.490Z,102551.05
2018-09-02T01:17:51.906Z,102555.08
2018-09-02T01:20:20.873Z,102544.25
2018-09-02T01:22:49.810Z,102545.84
2018-09-02T01:25:18.255Z,102552.75
2018-09-02T01:27:47.293Z,102552.19
2018-09-02T01:30:15.718Z,102546.93
2018-09-02T01:35:24.253Z,102397.80
2018-09-02T01:37:53.090Z,102553.73
2018-09-02T01:40:21.622Z,102556.89
2018-09-02T01:42:50.182Z,102556.47
2018-09-02T01:45:20.235Z,102559.03
2018-09-02T01:47:49.258Z,102560.01
2018-09-02T01:50:17.930Z,102557.72
2018-09-02T01:52:46.706Z,102557.00
2018-09-02T01:55:15.714Z,102561.77
2018-09-02T01:57:44.398Z,102566.05
2018-09-02T02:00:13.294Z,102558.92
2018-09-02T02:02:42.270Z,102562.86
2018-09-02T02:05:11.010Z,102560.16
2018-09-02T02:07:39.837Z,102571.91
2018-09-02T02:10:08.309Z,102571.27
2018-09-02T02:12:37.041Z,102574.39
2018-09-02T02:15:05.817Z,102574.88
2018-09-02T02:17:34.309Z,102578.83
2018-09-02T02:20:02.785Z,102583.59
2018-09-02T02:22:31.790Z,102587.05
2018-09-02T02:25:00.274Z,102587.05
2018-09-02T02:27:28.832Z,102585.32
2018-09-02T02:29:57.697Z,102582.05
2018-09-02T02:32:26.164Z,102582.80
2018-09-02T02:34:54.650Z,102582.31
2018-09-02T02:37:23.338Z,102591.17
2018-09-02T02:39:51.785Z,102592.34
2018-09-02T02:42:21.064Z,102587.00
2018-09-02T02:44:50.006Z,102586.52
2018-09-02T02:47:18.731Z,102595.14
2018-09-02T02:49:47.381Z,102595.14
2018-09-02T02:52:15.840Z,102587.83
2018-09-02T02:54:44.294Z,102592.67
2018-09-02T02:57:13.099Z,102587.00
2018-09-02T02:59:41.700Z,102589.70
2018-09-02T03:02:10.150Z,102589.70
2018-09-02T03:04:41.113Z,102592.67
2018-09-02T03:07:10.569Z,102594.66
2018-09-02T03:09:39.026Z,102600.58
2018-09-02T03:12:07.586Z,102608.80
2018-09-02T03:14:36.421Z,102605.69
2018-09-02T03:17:04.887Z,102301.26
2018-09-02T03:19:33.529Z,102605.69
2018-09-02T03:22:02.490Z,102611.84
2018-09-02T03:24:30.922Z,102612.33
2018-09-02T03:26:59.385Z,102616.20
2018-09-02T03:29:28.133Z,102618.08
2018-09-02T03:31:56.579Z,102626.53
2018-09-02T03:34:25.046Z,102625.63
2018-09-02T03:36:53.973Z,102622.09
2018-09-02T03:39:22.482Z,102618.98
2018-09-02T03:41:51.610Z,102623.83
2018-09-02T03:44:20.322Z,102622.09
2018-09-02T03:46:48.765Z,102613.73
2018-09-02T03:49:17.398Z,102619.88
2018-09-02T03:51:45.993Z,102621.35
2018-09-02T03:54:14.459Z,102616.92
2018-09-02T03:56:43.694Z,102591.55
2018-09-02T03:59:13.215Z,102621.77
2018-09-02T04:01:41.753Z,102620.86
2018-09-02T04:04:10.249Z,102622.67
2018-09-02T04:06:38.861Z,102622.26
2018-09-02T04:09:09.352Z,102619.14
2018-09-02T04:11:38.042Z,102624.47
2018-09-02T04:14:06.618Z,102618.31
2018-09-02T04:16:35.072Z,102619.63
2018-09-02T04:19:03.857Z,102623.98
2018-09-02T04:21:32.396Z,102624.88
2018-09-02T04:24:00.869Z,102626.10
2018-09-02T04:26:29.341Z,102630.36
2018-09-02T04:28:57.862Z,102629.20
2018-09-02T04:31:26.302Z,102631.98
2018-09-02T04:33:56.130Z,102631.49
2018-09-02T04:36:24.827Z,102628.30
2018-09-02T04:38:53.287Z,102630.59
2018-09-02T04:41:21.867Z,102628.38
2018-09-02T04:43:51.418Z,102629.43
2018-09-02T04:46:19.853Z,102632.47
2018-09-02T04:48:48.321Z,102631.16
2018-09-02T04:51:17.473Z,102623.45
2018-09-02T04:53:45.989Z,102631.16
2018-09-02T04:56:14.462Z,102628.68
2018-09-02T04:58:42.985Z,102634.42
2018-09-02T05:01:11.606Z,102627.11
2018-09-02T05:03:40.081Z,102630.20
2018-09-02T05:06:09.017Z,102627.12
2018-09-02T05:08:37.445Z,102624.86
2018-09-02T05:11:06.401Z,102621.22
2018-09-02T05:13:35.166Z,102625.88
2018-09-02T05:16:03.658Z,102626.52
2018-09-02T05:18:32.109Z,102624.03
2018-09-02T05:21:00.547Z,102626.39
2018-09-02T05:23:28.983Z,102630.08
2018-09-02T05:25:57.533Z,102631.13
2018-09-02T05:28:26.015Z,102633.41
2018-09-02T05:30:54.457Z,102631.91
2018-09-02T05:33:22.929Z,102633.52
2018-09-02T05:35:51.930Z,102642.60
2018-09-02T05:38:20.981Z,102643.37
2018-09-02T05:40:49.529Z,102638.44
2018-09-02T05:43:18.161Z,102633.45
2018-09-02T05:45:46.597Z,102634.33
2018-09-02T05:48:15.065Z,102636.48
2018-09-02T05:50:43.809Z,102634.27
2018-09-02T05:53:12.763Z,102633.84
2018-09-02T05:55:41.510Z,102633.91
2018-09-02T05:58:10.481Z,102636.46
2018-09-02T06:00:39.007Z,102638.25
2018-09-02T06:03:07.876Z,102643.92
2018-09-02T06:05:36.591Z,102645.64
2018-09-02T06:08:05.053Z,102650.48
2018-09-02T06:10:33.566Z,102646.00
2018-09-02T06:13:02.081Z,102650.35
2018-09-02T06:15:30.527Z,102646.30
2018-09-02T06:17:59.169Z,102655.91
2018-09-02T06:20:27.687Z,102656.81
2018-09-02T06:22:56.121Z,102650.94
2018-09-02T06:25:24.607Z,102648.61
2018-09-02T06:27:59.933Z,102649.81
2018-09-02T06:30:28.435Z,102657.69
2018-09-02T06:32:56.913Z,102654.92
2018-09-02T06:35:25.564Z,102653.48
2018-09-02T06:37:54.021Z,102653.84
2018-09-02T06:40:22.605Z,102651.91
2018-09-02T06:42:57.943Z,102657.23
2018-09-02T06:45:26.463Z,102653.20
2018-09-02T06:47:54.898Z,102662.42
2018-09-02T06:50:23.709Z,102658.06
2018-09-02T06:52:52.240Z,102659.88
2018-09-02T06:55:21.578Z,102581.82
2018-09-02T06:57:50.349Z,102658.84
2018-09-02T07:00:18.806Z,102659.28
2018-09-02T07:02:47.243Z,102660.73
2018-09-02T07:05:16.609Z,102660.53
2018-09-02T07:07:45.598Z,102652.42
2018-09-02T07:10:14.049Z,102657.91
2018-09-02T07:12:42.584Z,102661.66
2018-09-02T07:15:11.060Z,102655.38
2018-09-02T07:17:39.494Z,102665.42
2018-09-02T07:20:08.470Z,102664.20
2018-09-02T07:22:36.885Z,102665.36
2018-09-02T07:25:05.356Z,102660.41
2018-09-02T07:27:34.335Z,102660.08
2018-09-02T07:30:02.819Z,102663.28
2018-09-02T07:32:31.277Z,102664.84
2018-09-02T07:35:00.032Z,102668.93
2018-09-02T07:37:28.465Z,102666.20
2018-09-02T07:39:56.912Z,102663.57
2018-09-02T07:42:25.556Z,102665.77
2018-09-02T07:44:54.038Z,102669.64
2018-09-02T07:47:22.549Z,102664.22
2018-09-02T07:49:51.194Z,102660.94
2018-09-02T07:52:19.673Z,102660.12
2018-09-02T07:54:48.124Z,102668.55
2018-09-02T07:57:17.473Z,102661.87
2018-09-02T07:59:45.934Z,102670.34
2018-09-02T08:02:14.377Z,102675.02
2018-09-02T08:04:42.959Z,102676.09
2018-09-02T08:07:11.532Z,102678.77
2018-09-02T08:09:39.966Z,102683.74
2018-09-02T08:12:08.740Z,102675.31
2018-09-02T08:14:37.181Z,102683.76
2018-09-02T08:17:05.849Z,102676.59
2018-09-02T08:19:34.789Z,102671.74
2018-09-02T08:22:03.310Z,102678.85
2018-09-02T08:24:31.856Z,102673.77
2018-09-02T08:27:00.678Z,102672.77
2018-09-02T08:29:29.116Z,102670.87
2018-09-02T08:31:57.614Z,102669.63
2018-09-02T08:34:26.532Z,102664.28
2018-09-02T08:36:54.992Z,102663.44
2018-09-02T08:39:23.459Z,102662.05
2018-09-02T08:41:52.351Z,102668.73
2018-09-02T08:44:20.801Z,102661.89
2018-09-02T08:46:49.270Z,102668.56
2018-09-02T08:49:17.830Z,102661.44
2018-09-02T08:51:46.262Z,102666.17
2018-09-02T08:54:14.689Z,102674.88
2018-09-02T08:56:43.357Z,102665.26
2018-09-02T08:59:11.799Z,102673.05
2018-09-02T09:01:42.546Z,102678.47
2018-09-02T09:04:11.032Z,102675.45
2018-09-02T09:06:39.461Z,102673.66
2018-09-02T09:09:08.955Z,102675.38
2018-09-02T09:11:37.522Z,102674.07
2018-09-02T09:14:06.056Z,102674.17
2018-09-02T09:16:34.629Z,102675.84
2018-09-02T09:19:03.249Z,102672.42
2018-09-02T09:21:31.736Z,102671.91
2018-09-02T09:24:00.270Z,102667.80
2018-09-02T09:26:28.797Z,102674.91
2018-09-02T09:28:57.261Z,102672.40
2018-09-02T09:31:25.711Z,102674.17
2018-09-02T09:33:54.578Z,102666.16
2018-09-02T09:36:27.178Z,102666.60
2018-09-02T09:38:56.141Z,102669.34
2018-09-02T09:41:24.576Z,102664.83
2018-09-02T09:43:53.020Z,102665.72
2018-09-02T09:46:21.573Z,102660.45
2018-09-02T09:48:50.925Z,102665.05
2018-09-02T09:51:19.657Z,102671.56
2018-09-02T09:53:48.308Z,102671.18
2018-09-02T09:56:16.741Z,102661.66
2018-09-02T09:58:45.186Z,102669.78
2018-09-02T10:01:14.094Z,102657.16
2018-09-02T10:03:42.601Z,102663.33
2018-09-02T10:06:11.433Z,102660.77
2018-09-02T10:08:40.001Z,102664.17
2018-09-02T10:11:08.698Z,102666.45
2018-09-02T10:13:37.213Z,102672.61
2018-09-02T10:16:06.482Z,102661.98
2018-09-02T10:18:34.943Z,102662.73
2018-09-02T10:21:03.485Z,102660.46
2018-09-02T10:23:32.438Z,102663.14
2018-09-02T10:26:00.876Z,102661.58
2018-09-02T10:28:29.330Z,102664.74
2018-09-02T10:30:58.293Z,102662.16
2018-09-02T10:33:26.836Z,102652.03
2018-09-02T10:35:55.198Z,102652.11
2018-09-02T10:38:24.242Z,102649.23
2018-09-02T10:40:52.681Z,102647.59
2018-09-02T10:43:22.152Z,102649.50
2018-09-02T10:45:50.710Z,102650.09
2018-09-02T10:48:19.153Z,102642.42
2018-09-02T10:50:47.582Z,102643.66
2018-09-02T10:53:16.117Z,102650.45
2018-09-02T10:55:44.549Z,102647.39
2018-09-02T10:58:12.978Z,102640.37
2018-09-02T11:00:41.892Z,102640.08
2018-09-02T11:03:10.331Z,102640.42
2018-09-02T11:05:38.785Z,102637.06
2018-09-02T11:08:07.342Z,102646.67
2018-09-02T11:10:35.796Z,102651.20
2018-09-02T11:13:04.461Z,102643.23
2018-09-02T11:15:33.601Z,102643.86
2018-09-02T11:18:02.117Z,102643.25
2018-09-02T11:20:30.625Z,102643.47
2018-09-02T11:22:59.110Z,102634.75
2018-09-02T11:27:54.966Z,102635.84
2018-09-02T11:30:23.441Z,102641.01
2018-09-02T11:32:58.542Z,102640.33
2018-09-02T11:35:27.465Z,102635.02
2018-09-02T11:37:55.918Z,102629.72
2018-09-02T11:40:24.449Z,102628.55
2018-09-02T11:42:53.162Z,102636.85
2018-09-02T11:45:22.540Z,102635.07
2018-09-02T11:47:50.979Z,102642.41
2018-09-02T11:50:19.582Z,102638.70
2018-09-02T11:52:48.072Z,102641.98
2018-09-02T11:55:16.545Z,102641.41
2018-09-02T11:57:45.465Z,102643.98
2018-09-02T12:00:13.995Z,102644.42
2018-09-02T12:02:42.481Z,102633.34
2018-09-02T12:05:11.426Z,102634.81
2018-09-02T12:07:40.057Z,102634.23
2018-09-02T12:10:08.662Z,102631.98
2018-09-02T12:12:37.673Z,102630.53
2018-09-02T12:15:06.639Z,102635.12
2018-09-02T12:17:35.089Z,102637.09
2018-09-02T12:20:03.740Z,102635.64
2018-09-02T12:22:32.188Z,102630.13
2018-09-02T12:25:00.806Z,102631.66
2018-09-02T12:27:29.498Z,102631.80
2018-09-02T12:29:57.941Z,102631.91
2018-09-02T12:32:26.433Z,102629.38
2018-09-02T12:34:55.009Z,102624.63
2018-09-02T12:37:23.487Z,102613.37
2018-09-02T12:39:51.949Z,102620.05
2018-09-02T12:42:21.158Z,102617.94
2018-09-02T12:44:49.823Z,102619.02
2018-09-02T12:47:18.305Z,102615.38
2018-09-02T12:49:46.857Z,102617.77
2018-09-02T12:52:15.307Z,102618.38
2018-09-02T12:54:43.762Z,102619.32
2018-09-02T12:57:12.285Z,102612.72
2018-09-02T12:59:40.738Z,102619.24
2018-09-02T13:02:09.198Z,102622.75
2018-09-02T13:04:37.938Z,102628.95
2018-09-02T13:07:06.523Z,102624.42
2018-09-02T13:09:35.022Z,102627.17
2018-09-02T13:12:03.454Z,102622.58
2018-09-02T13:14:31.929Z,102622.27
2018-09-02T13:17:00.521Z,102621.04
2018-09-02T13:19:29.002Z,102617.63
2018-09-02T13:21:57.476Z,102624.27
2018-09-02T13:24:26.051Z,102620.98
2018-09-02T13:26:54.705Z,102614.77
2018-09-02T13:29:23.194Z,102614.61
2018-09-02T13:31:51.757Z,102617.95
2018-09-02T13:34:20.289Z,102612.64
2018-09-02T13:36:48.786Z,102607.87
2018-09-02T13:39:17.228Z,102606.94
2018-09-02T13:41:45.801Z,102610.47
2018-09-02T13:44:14.229Z,102609.20
2018-09-02T13:46:42.829Z,102605.58
2018-09-02T13:49:11.541Z,102601.95
2018-09-02T13:51:40.135Z,102594.58
2018-09-02T13:54:08.479Z,102598.22
2018-09-02T13:56:37.359Z,102598.41
2018-09-02T13:59:05.829Z,102596.46
2018-09-02T14:01:34.283Z,102597.19
2018-09-02T14:04:03.270Z,102595.58
2018-09-02T14:06:32.007Z,102600.18
2018-09-02T14:09:00.472Z,102598.44
2018-09-02T14:11:29.119Z,102601.61
2018-09-02T14:13:57.790Z,102596.59
2018-09-02T14:16:26.404Z,102593.81
2018-09-02T14:19:01.847Z,102590.91
2018-09-02T14:21:30.371Z,102590.49
2018-09-02T14:23:58.819Z,102593.59
2018-09-02T14:26:27.488Z,102592.49
2018-09-02T14:28:55.939Z,102592.95
2018-09-02T14:31:24.452Z,102595.27
2018-09-02T14:33:53.002Z,102595.90
2018-09-02T14:36:21.486Z,102592.27
2018-09-02T14:38:50.349Z,102593.47
2018-09-02T14:41:18.996Z,102599.84
2018-09-02T14:43:47.567Z,102604.41
2018-09-02T14:46:16.043Z,102597.79
2018-09-02T14:48:44.595Z,102592.24
2018-09-02T14:51:13.101Z,102588.55
2018-09-02T14:53:41.653Z,102594.00
2018-09-02T14:56:10.722Z,102588.89
2018-09-02T14:58:39.270Z,102588.72
2018-09-02T15:01:07.798Z,102587.84
2018-09-02T15:03:36.648Z,102587.66
2018-09-02T15:06:05.143Z,102584.10
2018-09-02T15:08:33.597Z,102594.66
2018-09-02T15:11:02.601Z,102587.49
2018-09-02T15:13:31.198Z,102586.73
2018-09-02T15:15:59.673Z,102586.32
2018-09-02T15:18:28.272Z,102585.20
2018-09-02T15:20:56.919Z,102576.50
2018-09-02T15:23:25.360Z,102585.13
2018-09-02T15:25:54.321Z,102577.92
2018-09-02T15:28:23.446Z,102587.55
2018-09-02T15:30:51.869Z,102581.55
2018-09-02T15:33:20.517Z,102578.89
2018-09-02T15:35:49.257Z,102581.08
2018-09-02T15:38:17.705Z,102578.23
2018-09-02T15:40:46.565Z,102590.49
2018-09-02T15:43:14.985Z,102587.32
2018-09-02T15:45:43.459Z,102588.38
2018-09-02T15:48:12.376Z,102587.58
2018-09-02T15:50:41.465Z,102585.59
2018-09-02T15:53:09.918Z,102586.80
2018-09-02T15:55:38.516Z,102586.20
2018-09-02T15:58:06.996Z,102582.94
2018-09-02T16:00:35.568Z,102581.86
2018-09-02T16:03:04.090Z,102581.36
2018-09-02T16:05:32.582Z,102582.64
2018-09-02T16:08:01.033Z,102579.39
2018-09-02T16:10:29.961Z,102575.52
2018-09-02T16:12:58.422Z,102578.34
2018-09-02T16:15:26.898Z,102570.00
2018-09-02T16:17:55.655Z,102575.28
2018-09-02T16:20:24.181Z,102575.06
2018-09-02T16:22:52.827Z,102575.03
2018-09-02T16:25:23.434Z,102579.77
2018-09-02T16:27:51.916Z,102577.83
2018-09-02T16:30:20.697Z,102574.67
2018-09-02T16:32:49.487Z,102580.94
2018-09-02T16:35:17.929Z,102579.25
2018-09-02T16:37:46.375Z,102573.09
2018-09-02T16:40:14.837Z,102578.93
2018-09-02T16:42:43.345Z,102575.58
2018-09-02T16:45:11.855Z,102576.14
2018-09-02T16:47:40.541Z,102581.41
2018-09-02T16:50:12.460Z,102574.16
2018-09-02T16:52:41.303Z,102575.17
2018-09-02T16:55:09.776Z,102574.30
2018-09-02T16:57:38.213Z,102576.98
2018-09-02T17:00:08.038Z,102574.28
2018-09-02T17:02:36.504Z,102578.29
2018-09-02T17:05:10.385Z,102575.12
2018-09-02T17:07:39.013Z,102571.09
2018-09-02T17:10:07.563Z,102567.98
2018-09-02T17:12:36.182Z,102577.30
2018-09-02T17:15:05.257Z,102577.73
2018-09-02T17:17:33.677Z,102577.71
2018-09-02T17:20:02.188Z,102585.66
2018-09-02T17:22:30.752Z,102580.16
2018-09-02T17:24:59.394Z,102588.17
2018-09-02T17:27:27.879Z,102581.92
2018-09-02T17:29:56.759Z,102584.05
2018-09-02T17:32:26.163Z,102591.01
2018-09-02T17:34:54.885Z,102589.47
2018-09-02T17:37:23.533Z,102592.91
2018-09-02T17:39:51.992Z,102587.98
2018-09-02T17:42:20.971Z,102590.21
2018-09-02T17:44:58.642Z,102587.10
2018-09-02T17:47:27.110Z,102591.96
2018-09-02T17:49:55.552Z,102593.14
2018-09-02T17:52:24.255Z,102589.98
2018-09-02T17:54:53.121Z,102593.03
2018-09-02T17:57:21.718Z,102596.00
2018-09-02T17:59:50.346Z,102594.58
2018-09-02T18:02:18.910Z,102590.03
2018-09-02T18:04:47.356Z,102594.41
2018-09-02T18:07:15.927Z,102597.36
2018-09-02T18:09:44.558Z,102605.63
2018-09-02T18:12:13.006Z,102598.75
2018-09-02T18:14:41.578Z,102606.70
2018-09-02T18:17:10.058Z,102604.91
2018-09-02T18:19:38.527Z,102612.29
2018-09-02T18:22:07.440Z,102607.34
2018-09-02T18:24:35.965Z,102607.30
2018-09-02T18:27:04.731Z,102606.82
2018-09-02T18:29:33.253Z,102606.78
2018-09-02T18:32:01.754Z,102604.11
2018-09-02T18:34:30.313Z,102607.62
2018-09-02T18:36:58.951Z,102610.61
2018-09-02T18:39:27.499Z,102609.61
2018-09-02T18:41:55.918Z,102613.55
2018-09-02T18:44:24.533Z,102616.61
2018-09-02T18:46:53.392Z,102618.70
2018-09-02T18:49:21.913Z,102615.81
2018-09-02T18:51:50.777Z,102615.19
2018-09-02T18:54:19.307Z,102615.14
2018-09-02T18:56:47.930Z,102618.67
2018-09-02T18:59:16.597Z,102618.62
2018-09-02T19:01:45.272Z,102614.97
2018-09-02T19:04:13.776Z,102616.95
2018-09-02T19:06:42.285Z,102617.20
2018-09-02T19:09:11.021Z,102618.45
2018-09-02T19:11:39.466Z,102617.53
2018-09-02T19:14:08.332Z,102618.80
2018-09-02T19:16:36.796Z,102623.53
2018-09-02T19:19:05.290Z,102618.52
2018-09-02T19:21:34.033Z,102615.15
2018-09-02T19:24:02.599Z,102588.11
2018-09-02T19:26:31.045Z,102616.23
2018-09-02T19:28:59.754Z,102615.23
2018-09-02T19:31:28.298Z,102616.03
2018-09-02T19:33:57.801Z,102612.02
2018-09-02T19:36:27.737Z,102608.86
2018-09-02T19:38:56.249Z,102607.80
2018-09-02T19:41:24.698Z,102609.09
2018-09-02T19:43:53.489Z,102613.97
2018-09-02T19:46:22.488Z,102616.16
2018-09-02T19:48:50.958Z,102615.23
2018-09-02T19:51:19.610Z,102612.34
2018-09-02T19:53:48.129Z,102610.30
2018-09-02T19:56:16.625Z,102610.56
2018-09-02T19:58:45.617Z,102614.91
2018-09-02T20:01:14.064Z,102613.43
2018-09-02T20:03:42.508Z,102616.87
2018-09-02T20:06:11.133Z,102622.55
2018-09-02T20:08:39.566Z,102624.12
2018-09-02T20:11:07.993Z,102625.34
2018-09-02T20:13:36.550Z,102625.30
2018-09-02T20:16:05.001Z,102624.83
2018-09-02T20:18:33.469Z,102622.14
2018-09-02T20:21:03.098Z,102622.53
2018-09-02T20:23:31.648Z,102625.07
2018-09-02T20:26:00.081Z,102620.61
2018-09-02T20:28:29.044Z,102622.17
2018-09-02T20:30:57.686Z,102621.78
2018-09-02T20:33:26.157Z,102625.38
2018-09-02T20:35:55.090Z,102625.88
2018-09-02T20:38:23.754Z,102621.08
2018-09-02T20:40:52.202Z,102623.34
2018-09-02T20:43:21.452Z,102625.06
2018-09-02T20:45:49.947Z,102628.46
2018-09-02T20:48:18.610Z,102625.77
2018-09-02T20:50:47.561Z,102623.37
2018-09-02T20:53:16.038Z,102628.99
2018-09-02T20:55:44.482Z,102623.87
2018-09-02T20:58:13.046Z,102628.84
2018-09-02T21:00:41.465Z,102628.16
2018-09-02T21:03:10.796Z,102628.16
2018-09-02T21:05:39.522Z,102628.72
2018-09-02T21:08:08.079Z,102629.19
2018-09-02T21:10:36.613Z,102629.53
2018-09-02T21:13:05.182Z,102630.86
2018-09-02T21:15:33.620Z,102626.58
2018-09-02T21:18:02.081Z,102634.83
2018-09-02T21:20:30.754Z,102639.41
2018-09-02T21:22:59.216Z,102636.53
2018-09-02T21:25:27.681Z,102636.44
2018-09-02T21:27:56.630Z,102639.85
2018-09-02T21:30:25.113Z,102643.08
2018-09-02T21:32:53.717Z,102633.10
2018-09-02T21:35:22.187Z,102635.66
2018-09-02T21:37:50.968Z,102632.48
2018-09-02T21:40:20.086Z,102641.67
2018-09-02T21:42:48.718Z,102511.55
2018-09-02T21:45:17.209Z,102642.19
2018-09-02T21:47:46.057Z,102643.80
2018-09-02T21:50:15.149Z,102650.22
2018-09-02T21:52:43.664Z,102641.62
2018-09-02T21:55:19.205Z,102640.72
2018-09-02T21:57:47.666Z,102642.47
2018-09-02T22:00:17.408Z,102647.72
2018-09-02T22:02:46.798Z,102645.02
2018-09-02T22:05:16.571Z,102651.54
2018-09-02T22:07:45.018Z,102649.32
2018-09-02T22:10:13.581Z,102653.62
2018-09-02T22:12:42.082Z,102652.14
2018-09-02T22:15:11.194Z,102655.59
2018-09-02T22:17:40.071Z,102648.34
2018-09-02T22:20:08.699Z,102649.66
2018-09-02T22:22:37.141Z,102653.21
2018-09-02T22:25:06.733Z,102649.46
2018-09-02T22:27:35.209Z,102648.46
2018-09-02T22:30:04.497Z,102651.32
2018-09-02T22:32:33.390Z,102497.02
2018-09-02T22:35:01.951Z,102647.63
2018-09-02T22:37:37.407Z,102653.28
2018-09-02T22:40:05.913Z,102649.22
2018-09-02T22:42:34.513Z,102646.09
2018-09-02T22:45:03.333Z,102646.46
2018-09-02T22:47:38.297Z,102645.09
2018-09-02T22:50:07.125Z,102649.95
2018-09-02T22:52:35.573Z,102649.53
2018-09-02T22:55:04.052Z,102646.78
2018-09-02T22:57:32.729Z,102649.91
2018-09-02T23:00:01.217Z,102652.50
2018-09-02T23:02:36.559Z,102645.35
2018-09-02T23:05:05.118Z,102645.35
2018-09-02T23:07:33.561Z,102641.33
2018-09-02T23:10:02.411Z,102645.24
2018-09-02T23:12:31.187Z,102644.77
2018-09-02T23:14:59.647Z,102639.11
2018-09-02T23:17:28.469Z,102641.80
2018-09-02T23:19:56.949Z,102642.12
2018-09-02T23:22:25.373Z,102637.30
2018-09-02T23:24:54.049Z,102641.17
2018-09-02T23:27:22.473Z,102635.24
2018-09-02T23:29:50.965Z,102636.94
2018-09-02T23:32:19.857Z,102641.22
2018-09-02T23:34:48.336Z,102632.27
2018-09-02T23:37:17.081Z,102638.89
2018-09-02T23:39:45.733Z,102632.64
2018-09-02T23:42:14.173Z,102639.68
2018-09-02T23:44:42.912Z,102632.42
2018-09-02T23:47:11.781Z,102625.70
2018-09-02T23:49:40.218Z,102627.34
2018-09-02T23:52:08.664Z,102632.09
2018-09-02T23:54:37.201Z,102630.22
2018-09-02T23:57:05.909Z,102628.75
2018-09-02T23:59:34.641Z,102628.28
